createdAt,value
2019-05-26T00:00:58.745Z,69.79
2019-05-26T00:01:58.709Z,69.76
2019-05-26T00:02:58.675Z,68.93
2019-05-26T00:03:58.637Z,69.12
2019-05-26T00:04:58.597Z,69.02
2019-05-26T00:05:58.564Z,68.64
2019-05-26T00:06:58.532Z,68.32
2019-05-26T00:07:58.503Z,67.78
2019-05-26T00:08:58.447Z,67.88
2019-05-26T00:09:58.413Z,67.18
2019-05-26T00:10:58.372Z,66.70
2019-05-26T00:11:58.335Z,65.74
2019-05-26T00:12:58.304Z,65.26
2019-05-26T00:13:58.256Z,64.22
2019-05-26T00:14:58.219Z,64.78
2019-05-26T00:15:58.184Z,64.40
2019-05-26T00:16:58.145Z,64.12
2019-05-26T00:17:58.105Z,63.83
2019-05-26T00:18:58.069Z,63.54
2019-05-26T00:19:58.029Z,62.68
2019-05-26T00:20:57.992Z,62.11
2019-05-26T00:21:57.960Z,61.06
2019-05-26T00:22:57.922Z,59.81
2019-05-26T00:23:57.884Z,58.38
2019-05-26T00:24:57.843Z,57.71
2019-05-26T00:25:57.804Z,56.76
2019-05-26T00:26:57.766Z,55.80
2019-05-26T00:27:57.729Z,55.13
2019-05-26T00:28:57.690Z,55.04
2019-05-26T00:29:57.655Z,54.27
2019-05-26T00:30:57.618Z,53.70
2019-05-26T00:31:57.577Z,52.46
2019-05-26T00:32:57.541Z,52.55
2019-05-26T00:33:57.504Z,52.08
2019-05-26T00:34:57.472Z,51.89
2019-05-26T00:35:57.430Z,50.26
2019-05-26T00:36:57.390Z,50.74
2019-05-26T00:37:57.353Z,49.98
2019-05-26T00:38:57.312Z,50.74
2019-05-26T00:39:57.273Z,50.74
2019-05-26T00:40:57.238Z,50.35
2019-05-26T00:41:57.201Z,49.40
2019-05-26T00:42:57.164Z,49.30
2019-05-26T00:43:57.131Z,48.16
2019-05-26T00:44:57.092Z,47.78
2019-05-26T00:45:57.060Z,46.82
2019-05-26T00:46:57.009Z,46.92
2019-05-26T00:47:56.977Z,47.58
2019-05-26T00:48:56.939Z,46.15
2019-05-26T00:49:56.900Z,45.67
2019-05-26T00:50:56.857Z,44.24
2019-05-26T00:51:56.820Z,44.53
2019-05-26T00:52:57.054Z,42.81
2019-05-26T00:53:56.747Z,42.04
2019-05-26T00:54:56.712Z,41.85
2019-05-26T00:55:56.676Z,41.66
2019-05-26T00:56:56.637Z,42.24
2019-05-26T00:57:56.594Z,42.61
2019-05-26T00:58:56.555Z,42.81
2019-05-26T00:59:56.521Z,41.95
2019-05-26T01:00:56.508Z,42.14
2019-05-26T01:01:56.613Z,41.75
2019-05-26T01:02:56.410Z,41.66
2019-05-26T01:03:56.368Z,41.95
2019-05-26T01:04:56.333Z,42.14
2019-05-26T01:05:56.294Z,42.24
2019-05-26T01:06:56.259Z,40.52
2019-05-26T01:08:05.970Z,40.42
2019-05-26T01:08:56.182Z,39.84
2019-05-26T01:09:56.141Z,40.32
2019-05-26T01:10:56.101Z,40.80
2019-05-26T01:11:56.067Z,40.80
2019-05-26T01:12:56.026Z,40.32
2019-05-26T01:13:55.992Z,40.99
2019-05-26T01:14:55.957Z,41.09
2019-05-26T01:15:55.918Z,40.99
2019-05-26T01:16:56.262Z,41.85
2019-05-26T01:17:55.839Z,41.09
2019-05-26T01:18:55.805Z,40.99
2019-05-26T01:19:55.766Z,40.42
2019-05-26T01:20:55.725Z,40.13
2019-05-26T01:21:55.690Z,40.61
2019-05-26T01:22:55.646Z,40.70
2019-05-26T01:23:55.609Z,40.80
2019-05-26T01:24:55.574Z,40.42
2019-05-26T01:25:55.539Z,40.32
2019-05-26T01:26:55.500Z,40.03
2019-05-26T01:27:55.464Z,39.47
2019-05-26T01:28:55.425Z,39.18
2019-05-26T01:29:55.383Z,39.37
2019-05-26T01:30:55.344Z,38.89
2019-05-26T01:31:55.312Z,39.18
2019-05-26T01:32:55.271Z,39.18
2019-05-26T01:33:55.238Z,39.37
2019-05-26T01:34:55.199Z,38.60
2019-05-26T01:35:55.153Z,38.79
2019-05-26T01:36:55.120Z,38.32
2019-05-26T01:37:55.081Z,39.08
2019-05-26T01:38:55.045Z,38.79
2019-05-26T01:39:55.120Z,38.60
2019-05-26T01:40:54.979Z,37.84
2019-05-26T01:41:54.930Z,37.65
2019-05-26T01:42:54.888Z,37.93
2019-05-26T01:43:54.851Z,37.55
2019-05-26T01:44:54.818Z,36.77
2019-05-26T01:45:54.778Z,36.87
2019-05-26T01:46:54.744Z,36.41
2019-05-26T01:47:54.705Z,35.91
2019-05-26T01:48:54.667Z,34.95
2019-05-26T01:49:54.625Z,34.67
2019-05-26T01:50:54.586Z,34.97
2019-05-26T01:51:54.560Z,34.48
2019-05-26T01:52:54.514Z,33.81
2019-05-26T01:53:54.473Z,33.81
2019-05-26T01:54:54.436Z,33.71
2019-05-26T01:55:54.398Z,32.57
2019-05-26T01:56:54.359Z,32.37
2019-05-26T01:57:54.323Z,31.71
2019-05-26T01:58:54.288Z,31.90
2019-05-26T01:59:54.252Z,32.01
2019-05-26T02:00:54.215Z,31.04
2019-05-26T02:01:54.169Z,31.05
2019-05-26T02:02:54.149Z,30.75
2019-05-26T02:03:54.093Z,30.56
2019-05-26T02:04:54.070Z,30.18
2019-05-26T02:05:54.020Z,29.03
2019-05-26T02:06:53.989Z,27.60
2019-05-26T02:07:53.967Z,26.84
2019-05-26T02:08:53.910Z,25.98
2019-05-26T02:09:53.868Z,24.54
2019-05-26T02:10:53.835Z,24.35
2019-05-26T02:11:53.795Z,22.73
2019-05-26T02:12:53.757Z,21.68
2019-05-26T02:13:53.715Z,22.73
2019-05-26T02:14:53.675Z,22.06
2019-05-26T02:15:53.637Z,19.96
2019-05-26T02:16:53.601Z,21.68
2019-05-26T02:17:53.564Z,21.48
2019-05-26T02:18:53.577Z,21.48
2019-05-26T02:19:53.493Z,21.87
2019-05-26T02:20:53.452Z,22.06
2019-05-26T02:21:53.412Z,22.16
2019-05-26T02:22:53.375Z,22.44
2019-05-26T02:23:53.401Z,22.63
2019-05-26T02:24:53.303Z,23.39
2019-05-26T02:25:53.257Z,23.39
2019-05-26T02:26:53.219Z,23.68
2019-05-26T02:27:53.180Z,23.59
2019-05-26T02:28:53.153Z,22.63
2019-05-26T02:29:53.108Z,22.06
2019-05-26T02:30:53.077Z,19.67
2019-05-26T02:31:53.034Z,18.15
2019-05-26T02:32:53.013Z,16.52
2019-05-26T02:33:52.954Z,15.56
2019-05-26T02:34:52.921Z,16.61
2019-05-26T02:35:52.879Z,16.90
2019-05-26T02:36:52.873Z,16.52
2019-05-26T02:37:52.804Z,16.52
2019-05-26T02:39:01.860Z,16.81
2019-05-26T02:39:52.723Z,16.90
2019-05-26T02:40:52.687Z,16.71
2019-05-26T02:41:52.657Z,14.90
2019-05-26T02:42:52.616Z,14.51
2019-05-26T02:43:52.580Z,16.81
2019-05-26T02:44:52.537Z,17.76
2019-05-26T02:45:52.505Z,18.05
2019-05-26T02:46:52.458Z,18.72
2019-05-26T02:47:52.431Z,19.01
2019-05-26T02:48:52.386Z,18.24
2019-05-26T02:49:52.349Z,18.52
2019-05-26T02:50:52.313Z,18.91
2019-05-26T02:51:52.371Z,19.67
2019-05-26T02:52:52.236Z,19.29
2019-05-26T02:53:52.192Z,19.01
2019-05-26T02:54:52.157Z,17.95
2019-05-26T02:55:52.121Z,16.42
2019-05-26T02:56:52.088Z,16.81
2019-05-26T02:57:52.049Z,16.61
2019-05-26T02:58:52.002Z,16.71
2019-05-26T02:59:51.963Z,16.90
2019-05-26T03:00:51.928Z,17.00
2019-05-26T03:02:03.103Z,17.57
2019-05-26T03:02:51.857Z,16.61
2019-05-26T03:03:51.815Z,16.52
2019-05-26T03:04:51.786Z,16.42
2019-05-26T03:05:51.737Z,17.10
2019-05-26T03:06:51.696Z,17.19
2019-05-26T03:07:51.658Z,18.24
2019-05-26T03:08:51.623Z,18.43
2019-05-26T03:09:51.586Z,17.76
2019-05-26T03:10:51.549Z,16.90
2019-05-26T03:11:51.508Z,17.00
2019-05-26T03:12:51.473Z,17.29
2019-05-26T03:13:51.435Z,17.38
2019-05-26T03:14:51.400Z,17.66
2019-05-26T03:15:51.357Z,17.57
2019-05-26T03:16:51.321Z,18.52
2019-05-26T03:17:51.279Z,18.52
2019-05-26T03:18:51.242Z,17.86
2019-05-26T03:19:51.199Z,17.38
2019-05-26T03:20:51.162Z,17.57
2019-05-26T03:21:51.126Z,18.52
2019-05-26T03:35:50.439Z,16.61
2019-05-26T03:36:50.353Z,23.48
2019-05-26T03:37:50.309Z,26.54
2019-05-26T03:38:50.281Z,27.98
2019-05-26T03:39:50.226Z,29.80
2019-05-26T03:40:50.286Z,31.04
2019-05-26T03:41:50.146Z,32.76
2019-05-26T03:42:50.106Z,34.48
2019-05-26T03:43:50.067Z,35.14
2019-05-26T03:44:50.025Z,35.82
2019-05-26T03:45:49.989Z,37.15
2019-05-26T03:46:49.956Z,37.34
2019-05-26T03:47:49.907Z,38.39
2019-05-26T03:48:49.867Z,37.73
2019-05-26T03:49:49.826Z,37.63
2019-05-26T03:50:49.792Z,37.15
2019-05-26T03:51:49.756Z,37.24
2019-05-26T03:52:49.714Z,38.78
2019-05-26T03:53:49.675Z,40.30
2019-05-26T03:54:49.634Z,40.78
2019-05-26T03:55:49.596Z,41.26
2019-05-26T03:56:49.562Z,42.31
2019-05-26T03:57:49.522Z,41.83
2019-05-26T03:58:49.483Z,42.21
2019-05-26T03:59:49.440Z,42.02
2019-05-26T04:00:49.400Z,42.79
2019-05-26T04:01:49.362Z,42.69
2019-05-26T04:02:49.330Z,42.50
2019-05-26T04:03:49.285Z,43.55
2019-05-26T04:04:49.246Z,43.65
2019-05-26T04:05:49.209Z,42.97
2019-05-26T04:06:49.173Z,44.31
2019-05-26T04:07:49.132Z,44.89
2019-05-26T04:08:49.091Z,44.98
2019-05-26T04:10:04.124Z,46.22
2019-05-26T04:10:49.018Z,46.89
2019-05-26T04:11:48.988Z,48.71
2019-05-26T04:12:48.939Z,49.47
2019-05-26T04:13:48.899Z,50.24
2019-05-26T04:14:48.867Z,50.81
2019-05-26T04:15:48.826Z,51.89
2019-05-26T04:16:48.787Z,52.55
2019-05-26T04:17:48.751Z,54.85
2019-05-26T04:18:48.710Z,55.04
2019-05-26T04:19:48.672Z,55.23
2019-05-26T04:20:48.631Z,55.13
2019-05-26T04:21:48.591Z,57.43
2019-05-26T04:22:48.559Z,57.43
2019-05-26T04:23:48.518Z,58.48
2019-05-26T04:24:48.617Z,58.95
2019-05-26T04:25:48.443Z,58.95
2019-05-26T04:26:48.400Z,59.81
2019-05-26T04:27:48.368Z,60.30
2019-05-26T04:28:48.330Z,61.25
2019-05-26T04:29:48.292Z,61.54
2019-05-26T04:30:48.255Z,61.92
2019-05-26T04:31:48.210Z,62.21
2019-05-26T04:32:48.174Z,62.21
2019-05-26T04:33:48.136Z,63.93
2019-05-26T04:34:48.105Z,63.45
2019-05-26T04:35:48.063Z,63.45
2019-05-26T04:36:48.026Z,64.78
2019-05-26T04:37:48.001Z,65.68
2019-05-26T04:38:47.954Z,65.58
2019-05-26T04:39:47.907Z,64.98
2019-05-26T04:40:47.872Z,64.12
2019-05-26T04:41:47.831Z,64.69
2019-05-26T04:42:47.797Z,64.25
2019-05-26T04:43:47.764Z,64.72
2019-05-26T04:44:47.724Z,65.39
2019-05-26T04:45:47.682Z,66.06
2019-05-26T04:46:47.649Z,65.87
2019-05-26T04:47:47.614Z,65.87
2019-05-26T04:48:47.585Z,66.54
2019-05-26T04:49:47.536Z,66.92
2019-05-26T04:50:47.492Z,66.35
2019-05-26T04:51:47.459Z,66.92
2019-05-26T04:53:04.477Z,67.78
2019-05-26T04:53:47.380Z,67.30
2019-05-26T04:54:47.346Z,68.35
2019-05-26T04:55:47.306Z,67.97
2019-05-26T04:56:47.274Z,68.55
2019-05-26T04:57:47.232Z,69.98
2019-05-26T04:58:47.203Z,68.93
2019-05-26T04:59:47.160Z,71.22
2019-05-26T05:00:47.119Z,72.85
2019-05-26T05:01:47.084Z,71.89
2019-05-26T05:02:47.041Z,71.03
2019-05-26T05:03:47.004Z,71.32
2019-05-26T05:04:46.968Z,71.99
2019-05-26T05:05:46.928Z,72.08
2019-05-26T05:06:46.897Z,71.51
2019-05-26T05:07:46.857Z,72.28
2019-05-26T05:08:46.822Z,71.61
2019-05-26T05:09:46.787Z,71.51
2019-05-26T05:10:46.742Z,73.52
2019-05-26T05:11:46.705Z,72.79
2019-05-26T05:12:46.674Z,72.50
2019-05-26T05:13:46.629Z,74.04
2019-05-26T05:14:46.603Z,74.04
2019-05-26T05:15:46.558Z,72.60
2019-05-26T05:16:46.531Z,72.98
2019-05-26T05:17:46.481Z,72.69
2019-05-26T05:18:46.447Z,75.27
2019-05-26T05:19:46.410Z,75.27
2019-05-26T05:20:46.372Z,75.95
2019-05-26T05:21:46.339Z,76.90
2019-05-26T05:22:46.294Z,77.28
2019-05-26T05:23:46.260Z,77.04
2019-05-26T05:24:46.225Z,78.76
2019-05-26T05:25:46.188Z,79.62
2019-05-26T05:26:46.152Z,79.05
2019-05-26T05:27:46.113Z,78.76
2019-05-26T05:28:46.076Z,79.14
2019-05-26T05:29:46.040Z,78.86
2019-05-26T05:30:46.001Z,79.52
2019-05-26T05:31:45.970Z,80.77
2019-05-26T05:32:45.928Z,79.05
2019-05-26T05:33:45.894Z,80.77
2019-05-26T05:34:45.854Z,80.87
2019-05-26T05:35:45.816Z,79.81
2019-05-26T05:36:45.780Z,79.91
2019-05-26T05:37:45.748Z,81.54
2019-05-26T05:38:45.712Z,81.57
2019-05-26T05:39:45.673Z,82.82
2019-05-26T05:40:58.379Z,84.64
2019-05-26T05:41:45.602Z,84.92
2019-05-26T05:42:45.560Z,85.21
2019-05-26T05:43:45.527Z,85.06
2019-05-26T05:44:45.489Z,83.34
2019-05-26T05:45:45.450Z,86.50
2019-05-26T05:46:45.422Z,86.21
2019-05-26T05:47:45.380Z,86.69
2019-05-26T05:48:45.344Z,86.60
2019-05-26T05:49:45.379Z,87.08
2019-05-26T05:50:45.275Z,86.88
2019-05-26T05:51:45.254Z,85.39
2019-05-26T05:52:45.201Z,88.27
2019-05-26T05:53:45.172Z,86.93
2019-05-26T05:54:45.126Z,87.70
2019-05-26T05:55:45.090Z,90.76
2019-05-26T05:56:45.055Z,90.57
2019-05-26T05:57:45.020Z,90.28
2019-05-26T05:58:44.993Z,91.53
2019-05-26T05:59:44.949Z,91.14
2019-05-26T06:00:44.915Z,89.90
2019-05-26T06:01:44.881Z,90.09
2019-05-26T06:02:44.838Z,91.53
2019-05-26T06:03:44.803Z,89.80
2019-05-26T06:04:44.769Z,91.53
2019-05-26T06:05:44.737Z,92.49
2019-05-26T06:06:44.704Z,90.09
2019-05-26T06:07:44.661Z,90.57
2019-05-26T06:08:44.626Z,91.48
2019-05-26T06:09:44.590Z,92.30
2019-05-26T06:10:44.559Z,92.34
2019-05-26T06:11:44.524Z,94.74
2019-05-26T06:12:44.486Z,92.63
2019-05-26T06:13:44.452Z,93.49
2019-05-26T06:14:44.412Z,94.35
2019-05-26T06:15:44.385Z,93.59
2019-05-26T06:16:44.342Z,93.40
2019-05-26T06:17:44.305Z,95.84
2019-05-26T06:18:44.276Z,93.25
2019-05-26T06:19:44.241Z,94.49
2019-05-26T06:20:44.202Z,94.02
2019-05-26T06:21:44.174Z,95.07
2019-05-26T06:22:44.138Z,94.40
2019-05-26T06:23:44.108Z,94.49
2019-05-26T06:24:44.067Z,95.26
2019-05-26T06:25:44.034Z,95.26
2019-05-26T06:26:43.996Z,93.35
2019-05-26T06:27:43.955Z,93.92
2019-05-26T06:28:43.920Z,93.82
2019-05-26T06:29:57.816Z,95.94
2019-05-26T06:30:43.859Z,93.73
2019-05-26T06:31:43.894Z,94.40
2019-05-26T06:32:43.788Z,93.54
2019-05-26T06:33:43.751Z,94.40
2019-05-26T06:34:43.710Z,93.92
2019-05-26T06:35:43.681Z,95.03
2019-05-26T06:36:43.656Z,95.79
2019-05-26T06:37:43.617Z,96.94
2019-05-26T06:38:43.571Z,95.31
2019-05-26T06:39:43.540Z,96.18
2019-05-26T06:40:43.503Z,96.37
2019-05-26T06:41:43.467Z,94.74
2019-05-26T06:42:43.436Z,95.89
2019-05-26T06:43:43.403Z,96.08
2019-05-26T06:44:53.033Z,97.52
2019-05-26T06:45:43.334Z,95.50
2019-05-26T06:46:43.295Z,95.12
2019-05-26T06:47:43.263Z,95.21
2019-05-26T06:48:43.234Z,98.86
2019-05-26T06:49:43.193Z,96.47
2019-05-26T06:50:43.165Z,95.41
2019-05-26T06:51:43.125Z,95.60
2019-05-26T06:52:43.092Z,98.24
2019-05-26T06:53:43.053Z,99.10
2019-05-26T06:54:43.026Z,99.10
2019-05-26T06:55:42.991Z,98.05
2019-05-26T06:56:42.959Z,95.65
2019-05-26T06:57:42.990Z,96.61
2019-05-26T06:58:42.882Z,98.24
2019-05-26T06:59:42.853Z,96.42
2019-05-26T07:00:42.816Z,96.80
2019-05-26T07:01:42.783Z,98.91
2019-05-26T07:02:42.753Z,95.84
2019-05-26T07:03:42.718Z,98.14
2019-05-26T07:04:42.681Z,99.58
2019-05-26T07:05:42.648Z,96.80
2019-05-26T07:06:42.610Z,97.62
2019-05-26T07:07:42.578Z,97.62
2019-05-26T07:08:42.546Z,99.99
2019-05-26T07:09:42.513Z,99.99
2019-05-26T07:10:42.472Z,99.25
2019-05-26T07:11:55.579Z,99.99
2019-05-26T07:12:42.412Z,99.30
2019-05-26T07:13:42.376Z,99.99
2019-05-26T07:14:42.344Z,99.20
2019-05-26T07:15:42.308Z,99.30
2019-05-26T07:16:42.274Z,99.99
2019-05-26T07:17:42.243Z,99.92
2019-05-26T07:18:42.202Z,99.99
2019-05-26T07:19:42.171Z,99.99
2019-05-26T07:20:42.146Z,99.99
2019-05-26T07:21:42.109Z,99.99
2019-05-26T07:22:42.079Z,99.99
2019-05-26T07:23:42.037Z,99.99
2019-05-26T07:24:42.005Z,99.99
2019-05-26T07:25:41.970Z,99.99
2019-05-26T07:26:41.946Z,99.99
2019-05-26T07:27:41.905Z,99.99
2019-05-26T07:28:41.871Z,99.99
2019-05-26T07:29:41.843Z,99.99
2019-05-26T07:30:41.805Z,99.99
2019-05-26T07:31:41.770Z,99.99
2019-05-26T07:32:41.737Z,99.99
2019-05-26T07:33:41.700Z,99.99
2019-05-26T07:34:41.678Z,99.99
2019-05-26T07:35:41.635Z,99.99
2019-05-26T07:36:41.602Z,99.99
2019-05-26T07:37:41.572Z,99.99
2019-05-26T07:38:41.541Z,99.99
2019-05-26T07:39:41.504Z,99.99
2019-05-26T07:40:41.469Z,99.99
2019-05-26T07:41:41.437Z,99.99
2019-05-26T07:42:41.402Z,99.99
2019-05-26T07:43:41.368Z,99.73
2019-05-26T07:44:41.333Z,98.58
2019-05-26T07:45:41.299Z,98.87
2019-05-26T07:46:41.273Z,99.83
2019-05-26T07:47:41.236Z,99.73
2019-05-26T07:48:41.203Z,99.99
2019-05-26T07:49:41.169Z,99.93
2019-05-26T07:50:41.138Z,99.99
2019-05-26T07:51:41.104Z,99.99
2019-05-26T07:52:41.081Z,99.99
2019-05-26T07:53:41.044Z,98.63
2019-05-26T07:54:41.002Z,99.11
2019-05-26T07:55:40.970Z,99.06
2019-05-26T07:56:40.939Z,98.44
2019-05-26T07:57:40.914Z,97.81
2019-05-26T07:58:40.870Z,96.27
2019-05-26T07:59:40.839Z,98.68
2019-05-26T08:00:40.806Z,99.54
2019-05-26T08:01:40.776Z,99.99
2019-05-26T08:02:40.743Z,98.58
2019-05-26T08:03:40.791Z,96.66
2019-05-26T08:04:40.679Z,94.54
2019-05-26T08:05:40.648Z,96.47
2019-05-26T08:06:40.607Z,98.19
2019-05-26T08:07:40.574Z,99.44
2019-05-26T08:08:40.542Z,98.96
2019-05-26T08:09:40.508Z,97.71
2019-05-26T08:10:40.480Z,97.62
2019-05-26T08:11:40.445Z,98.19
2019-05-26T08:12:40.409Z,98.58
2019-05-26T08:13:40.376Z,97.81
2019-05-26T08:14:40.354Z,96.27
2019-05-26T08:15:40.315Z,96.66
2019-05-26T08:16:40.280Z,95.79
2019-05-26T08:17:40.255Z,94.25
2019-05-26T08:18:40.215Z,93.87
2019-05-26T08:19:40.185Z,94.15
2019-05-26T08:20:40.149Z,91.66
2019-05-26T08:21:40.116Z,91.56
2019-05-26T08:22:40.101Z,92.52
2019-05-26T08:23:40.049Z,92.13
2019-05-26T08:24:40.015Z,91.46
2019-05-26T08:25:39.995Z,91.66
2019-05-26T08:26:39.946Z,89.15
2019-05-26T08:27:39.914Z,91.89
2019-05-26T08:28:39.884Z,93.05
2019-05-26T08:29:39.853Z,93.43
2019-05-26T08:30:39.817Z,90.45
2019-05-26T08:31:39.783Z,89.01
2019-05-26T08:32:39.749Z,89.73
2019-05-26T08:33:39.717Z,92.47
2019-05-26T08:34:39.689Z,89.97
2019-05-26T08:35:39.652Z,88.57
2019-05-26T08:36:39.622Z,89.68
2019-05-26T08:37:39.589Z,87.37
2019-05-26T08:38:39.553Z,86.31
2019-05-26T08:39:39.521Z,88.43
2019-05-26T08:40:39.489Z,90.73
2019-05-26T08:41:39.453Z,90.16
2019-05-26T08:42:44.390Z,90.16
2019-05-26T08:43:39.389Z,90.88
2019-05-26T08:44:39.356Z,90.55
2019-05-26T08:45:39.322Z,88.04
2019-05-26T08:46:39.294Z,86.12
2019-05-26T08:47:39.260Z,83.14
2019-05-26T08:48:39.225Z,87.27
2019-05-26T08:49:39.194Z,85.64
2019-05-26T08:50:39.161Z,85.83
2019-05-26T08:51:39.124Z,87.37
2019-05-26T08:52:39.091Z,88.91
2019-05-26T08:53:39.070Z,89.58
2019-05-26T08:54:39.031Z,87.37
2019-05-26T08:55:38.996Z,89.20
2019-05-26T08:56:38.961Z,89.20
2019-05-26T08:57:38.931Z,89.58
2019-05-26T08:58:38.898Z,89.49
2019-05-26T08:59:38.861Z,90.26
2019-05-26T09:00:38.832Z,90.20
2019-05-26T09:01:38.800Z,90.20
2019-05-26T09:02:38.764Z,88.95
2019-05-26T09:03:38.731Z,86.89
2019-05-26T09:04:38.697Z,88.91
2019-05-26T09:05:38.662Z,89.87
2019-05-26T09:06:38.637Z,92.32
2019-05-26T09:07:38.599Z,88.09
2019-05-26T09:08:38.567Z,88.57
2019-05-26T09:09:38.538Z,89.58
2019-05-26T09:10:38.499Z,91.03
2019-05-26T09:11:38.470Z,92.42
2019-05-26T09:12:38.434Z,89.92
2019-05-26T09:13:38.408Z,90.20
2019-05-26T09:14:38.374Z,94.34
2019-05-26T09:15:38.337Z,93.57
2019-05-26T09:16:38.306Z,92.61
2019-05-26T09:17:38.269Z,91.65
2019-05-26T09:18:38.257Z,90.69
2019-05-26T09:19:38.208Z,91.12
2019-05-26T09:20:38.175Z,93.33
2019-05-26T09:21:38.143Z,89.00
2019-05-26T09:22:38.107Z,85.82
2019-05-26T09:23:38.088Z,87.84
2019-05-26T09:24:38.043Z,86.59
2019-05-26T09:25:38.011Z,87.12
2019-05-26T09:26:37.981Z,87.02
2019-05-26T09:27:37.950Z,84.56
2019-05-26T09:28:37.914Z,82.29
2019-05-26T09:29:37.888Z,86.25
2019-05-26T09:30:37.851Z,82.59
2019-05-26T09:31:37.817Z,82.59
2019-05-26T09:32:37.784Z,82.29
2019-05-26T09:33:37.756Z,83.45
2019-05-26T09:34:37.719Z,79.79
2019-05-26T09:35:37.687Z,82.10
2019-05-26T09:49:19.134Z,80.66
2019-05-26T09:50:19.074Z,81.14
2019-05-26T09:51:19.036Z,83.55
2019-05-26T09:52:18.997Z,79.31
2019-05-26T09:53:18.959Z,75.36
2019-05-26T09:54:18.924Z,76.23
2019-05-26T09:55:18.887Z,73.43
2019-05-26T09:56:18.854Z,75.10
2019-05-26T09:57:18.823Z,72.12
2019-05-26T09:58:18.811Z,71.83
2019-05-26T09:59:18.757Z,69.32
2019-05-26T10:00:18.737Z,68.26
2019-05-26T10:01:18.690Z,70.57
2019-05-26T10:02:18.656Z,68.45
2019-05-26T10:03:18.620Z,71.54
2019-05-26T10:04:18.586Z,68.74
2019-05-26T10:05:18.550Z,66.66
2019-05-26T10:06:18.518Z,67.91
2019-05-26T10:07:18.484Z,71.86
2019-05-26T10:08:18.457Z,71.09
2019-05-26T10:09:18.423Z,71.96
2019-05-26T10:10:18.391Z,67.17
2019-05-26T10:11:18.398Z,66.59
2019-05-26T10:12:18.325Z,67.55
2019-05-26T10:13:30.942Z,66.20
2019-05-26T10:14:18.258Z,66.40
2019-05-26T10:15:18.234Z,66.01
2019-05-26T10:16:18.197Z,65.43
2019-05-26T10:17:18.169Z,65.34
2019-05-26T10:18:18.130Z,66.30
2019-05-26T10:19:18.098Z,66.49
2019-05-26T10:20:18.068Z,66.27
2019-05-26T10:21:18.038Z,66.46
2019-05-26T10:22:18.009Z,65.78
2019-05-26T10:23:17.977Z,65.30
2019-05-26T10:24:17.948Z,65.53
2019-05-26T10:25:17.914Z,67.52
2019-05-26T10:26:17.877Z,64.63
2019-05-26T10:27:17.847Z,64.05
2019-05-26T10:28:17.815Z,63.95
2019-05-26T10:29:17.784Z,65.01
2019-05-26T10:30:17.756Z,63.95
2019-05-26T10:31:17.720Z,64.53
2019-05-26T10:32:17.691Z,66.27
2019-05-26T10:33:17.661Z,68.33
2019-05-26T10:34:17.636Z,71.96
2019-05-26T10:35:17.600Z,68.10
2019-05-26T10:36:17.562Z,69.55
2019-05-26T10:37:17.531Z,66.17
2019-05-26T10:38:17.498Z,67.04
2019-05-26T10:39:17.467Z,66.14
2019-05-26T10:40:17.436Z,67.30
2019-05-26T10:41:17.407Z,65.08
2019-05-26T10:42:17.383Z,65.08
2019-05-26T10:43:17.346Z,66.24
2019-05-26T10:44:17.311Z,68.26
2019-05-26T10:45:17.279Z,69.71
2019-05-26T10:46:17.248Z,67.30
2019-05-26T10:47:17.219Z,67.58
2019-05-26T10:48:17.185Z,69.03
2019-05-26T10:49:17.153Z,67.58
2019-05-26T10:50:17.127Z,67.58
2019-05-26T10:51:17.088Z,68.07
2019-05-26T10:52:17.057Z,68.93
2019-05-26T10:53:17.026Z,66.91
2019-05-26T10:54:16.997Z,68.55
2019-05-26T10:55:16.965Z,68.55
2019-05-26T10:56:16.939Z,69.51
2019-05-26T10:57:16.899Z,68.93
2019-05-26T10:58:16.867Z,69.71
2019-05-26T10:59:16.833Z,74.24
2019-05-26T11:00:16.806Z,70.96
2019-05-26T11:01:16.778Z,71.44
2019-05-26T11:02:16.745Z,70.76
2019-05-26T11:03:16.705Z,74.14
2019-05-26T11:04:16.679Z,73.57
2019-05-26T11:05:16.646Z,69.93
2019-05-26T11:06:16.616Z,71.48
2019-05-26T11:07:16.585Z,72.83
2019-05-26T11:08:16.552Z,72.83
2019-05-26T11:09:16.518Z,70.00
2019-05-26T11:10:16.484Z,71.73
2019-05-26T11:11:16.455Z,74.08
2019-05-26T11:12:16.423Z,71.34
2019-05-26T11:13:16.392Z,72.69
2019-05-26T11:14:16.364Z,71.34
2019-05-26T11:15:16.332Z,70.19
2019-05-26T11:16:16.298Z,71.34
2019-05-26T11:17:16.266Z,73.50
2019-05-26T11:18:16.233Z,72.34
2019-05-26T11:19:16.205Z,73.31
2019-05-26T11:20:16.171Z,74.08
2019-05-26T11:21:16.140Z,75.62
2019-05-26T11:22:16.104Z,76.59
2019-05-26T11:23:16.076Z,71.67
2019-05-26T11:24:16.044Z,72.25
2019-05-26T11:25:16.020Z,76.01
2019-05-26T11:26:15.985Z,74.47
2019-05-26T11:27:15.979Z,76.98
2019-05-26T11:28:15.918Z,74.08
2019-05-26T11:29:15.887Z,71.96
2019-05-26T11:30:15.853Z,75.95
2019-05-26T11:31:15.825Z,72.00
2019-05-26T11:32:15.793Z,72.25
2019-05-26T11:33:15.763Z,69.29
2019-05-26T11:34:15.736Z,71.12
2019-05-26T11:35:15.708Z,72.77
2019-05-26T11:36:15.942Z,70.45
2019-05-26T11:37:15.637Z,71.03
2019-05-26T11:38:15.609Z,68.23
2019-05-26T11:39:15.578Z,67.59
2019-05-26T11:40:15.547Z,71.64
2019-05-26T11:41:15.511Z,71.16
2019-05-26T11:42:15.587Z,69.87
2019-05-26T11:43:17.016Z,66.97
2019-05-26T11:44:18.017Z,67.69
2019-05-26T11:45:15.389Z,70.48
2019-05-26T11:46:16.751Z,68.94
2019-05-26T11:47:15.329Z,68.84
2019-05-26T11:48:15.295Z,66.82
2019-05-26T11:49:15.263Z,67.88
2019-05-26T11:50:15.229Z,68.65
2019-05-26T11:51:15.207Z,68.94
2019-05-26T11:52:15.172Z,67.94
2019-05-26T11:53:15.138Z,65.43
2019-05-26T11:54:15.106Z,68.13
2019-05-26T11:55:15.076Z,66.59
2019-05-26T11:56:15.047Z,66.40
2019-05-26T11:57:15.016Z,66.20
2019-05-26T11:58:14.988Z,69.78
2019-05-26T11:59:14.959Z,72.48
2019-05-26T12:00:14.926Z,67.36
2019-05-26T12:01:14.898Z,68.52
2019-05-26T12:02:14.861Z,68.71
2019-05-26T12:03:14.831Z,68.91
2019-05-26T12:04:14.799Z,68.62
2019-05-26T12:05:17.548Z,70.36
2019-05-26T12:06:14.740Z,67.55
2019-05-26T12:07:14.708Z,67.17
2019-05-26T12:08:14.673Z,66.78
2019-05-26T12:09:14.648Z,69.78
2019-05-26T12:10:14.711Z,66.36
2019-05-26T12:11:14.587Z,69.00
2019-05-26T12:12:14.554Z,69.84
2019-05-26T12:13:14.520Z,68.77
2019-05-26T12:14:14.487Z,66.85
2019-05-26T12:15:14.457Z,68.19
2019-05-26T12:16:14.425Z,67.23
2019-05-26T12:17:14.401Z,68.10
2019-05-26T12:18:14.368Z,67.43
2019-05-26T12:19:14.337Z,69.07
2019-05-26T12:20:14.304Z,68.49
2019-05-26T12:21:14.273Z,68.10
2019-05-26T12:22:14.238Z,69.55
2019-05-26T12:23:14.213Z,68.68
2019-05-26T12:24:14.180Z,68.77
2019-05-26T12:25:14.152Z,70.22
2019-05-26T12:26:14.114Z,70.51
2019-05-26T12:27:14.084Z,68.97
2019-05-26T12:28:14.053Z,69.55
2019-05-26T12:29:14.023Z,67.71
2019-05-26T12:30:13.999Z,69.93
2019-05-26T12:31:13.965Z,68.87
2019-05-26T12:32:13.928Z,68.10
2019-05-26T12:33:13.981Z,68.68
2019-05-26T12:34:13.868Z,67.23
2019-05-26T12:35:13.832Z,69.74
2019-05-26T12:36:13.804Z,67.71
2019-05-26T12:37:13.776Z,67.52
2019-05-26T12:38:13.746Z,68.29
2019-05-26T12:39:13.709Z,71.48
2019-05-26T12:40:13.677Z,69.55
2019-05-26T12:41:13.649Z,68.19
2019-05-26T12:42:16.904Z,67.75
2019-05-26T12:43:13.591Z,67.43
2019-05-26T12:44:13.555Z,67.52
2019-05-26T12:45:13.523Z,68.68
2019-05-26T12:46:13.492Z,69.45
2019-05-26T12:47:13.466Z,69.26
2019-05-26T12:48:13.430Z,68.87
2019-05-26T12:49:13.401Z,71.09
2019-05-26T12:50:13.373Z,70.90
2019-05-26T12:51:13.341Z,71.67
2019-05-26T12:52:13.305Z,70.22
2019-05-26T12:53:13.272Z,70.61
2019-05-26T12:54:13.240Z,70.80
2019-05-26T12:55:13.215Z,69.93
2019-05-26T12:56:13.185Z,71.12
2019-05-26T12:57:13.148Z,72.38
2019-05-26T12:58:13.115Z,74.02
2019-05-26T12:59:13.086Z,70.32
2019-05-26T13:00:13.055Z,70.90
2019-05-26T13:01:13.042Z,71.51
2019-05-26T13:02:12.994Z,69.93
2019-05-26T13:03:12.965Z,72.06
2019-05-26T13:04:12.933Z,71.61
2019-05-26T13:05:12.899Z,74.99
2019-05-26T13:06:12.864Z,71.61
2019-05-26T13:07:12.835Z,71.28
2019-05-26T13:08:12.805Z,72.44
2019-05-26T13:09:12.775Z,73.50
2019-05-26T13:10:12.745Z,72.86
2019-05-26T13:11:12.711Z,72.44
2019-05-26T13:12:12.679Z,71.86
2019-05-26T13:13:12.651Z,71.58
2019-05-26T13:14:12.621Z,71.19
2019-05-26T13:15:12.590Z,72.54
2019-05-26T13:16:12.558Z,71.86
2019-05-26T13:17:12.532Z,73.69
2019-05-26T13:18:12.489Z,76.30